Portada
METAR-TAF:

METAR-TAF

Aeroports :

Iaroslavl, Rússia

latitud: 57-33-38N, longitud: 040-09-27E, altitud: 87 m

Observació

L'informe es va fer fa 31 minuts, a les 10:00 UTC
Vent 6 kt del Sud
Temperatura 9°C
Humitat 71%
Pressió 1021 hPa
Visibilitat 10 km o més
Cel cobert a una alçada de 4000 ft

METAR: UUDL 291000Z 19003MPS 9999 OVC040 09/04 Q1021 R23/010060 NOSIG RMK QFE758

Hora: 13:31 (10:31 UTC)

Pronòstic

L'informe es va fer fa 2 hores i 31 minuts, a les 08:00 UTC
Pronòstic vàlid del 29 a les 09 UTC al 30 a les 09 UTC
Vent 6 kt del Sud
Visibilitat 10 km o més
Cel ennuvolat a una alçada de 4000 ft

TAF: UUDL 290800Z 2909/3009 17003MPS 9999 BKN040 TX09/2912Z TNM01/3004Z

Observacions i pronòstics meteorològics de més de 4000 aeroports (METAR i TAF).

Les estacions disponibles són els punts grocs i vermells al mapa.

Posi el ratolí al punt desitjat per veure el nom de l'estació.

Feu clic per veure les observacions i els pronòstics meteorològics.

Per canviar el mapa: feu clic els botons verds amb una creu de color negre per apropar; al botó verd amb un guió per allunyar la imatge; o en les fletxes verdes per a mapes adjacents.


METAR-TAF: